Terminal Aerodrome Forecast
Issued by NWS Memphis, TN

Home | Current Version | Previous Version | Text Only | Print | Product List | Glossary On
Versions: 1 2 3 4 5 6 7 8 9 10 11 12 13 14 15 16 17 18 19 20 21 22 23 24 25 26 27 28
000
FTUS44 KMEG 272330
TAFMEM
TAF
KMEM 272330Z 2800/2824 36011KT P6SM SCT040 BKN060
     FM280200 01006KT P6SM SKC
     FM280800 04004KT P6SM BKN100
     FM281400 09007KT P6SM VCSH BKN025 OVC050
      TEMPO 2815/2819 6SM -RA BR BKN018
     FM282200 11007KT P6SM BKN050=

USA.gov is the U.S. government's official web portal to all federal, state and local government web resources and services.